Flugplatz Ramstein Air Base

Bericht für ETAR

vom 25.10. um 16:56 UTC

kein Wind

Sichtweite 10 km oder mehr

keine Wolken

Temperatur 8.7°C

Taupunkt 8.7°C

Luftfeuchtigkeit 100%

Luftdruck 1019 hPa

ETAR 251656Z AUTO 00000KT 9999 CLR 09/09 A3008 RMK AO2 SLP199 T00870087

Prognose für ETAR

vom 25.10. um 10:00 UTC

Zwischen 10:00 UTC und 17:00 UTC

Wind 6 kt aus 190°

Sichtweite 10 km oder mehr

gering bewölkt in 8000 ft


Zwischen 17:00 und 18:00 UTC übergehend zu

Wind 6 kt aus 240°

Sichtweite 10 km oder mehr

gering bewölkt in 1500 ft

aufgebrochene Bewölkung in 3500 ft


Zwischen 20:00 und 21:00 UTC übergehend zu

Wind 9 kt aus 250°

Sichtweite 9000 m

feuchter Dunst

Code: VCSH

aufgebrochene Bewölkung in 1500 ft


Am 26.10. zwischen 03:00 und 04:00 UTC übergehend zu

Wind 9 kt aus 240°

Sichtweite 8000 m

schwacher Regenschauer

feuchter Dunst

aufgebrochene Bewölkung in 1000 ft

bedeckt in 4000 ft


Am 26.10. zwischen 09:00 und 10:00 UTC übergehend zu

Wind 12 kt aus 240°

Sichtweite 10 km oder mehr

keine signifikanten Wettererscheinungen

aufgebrochene Bewölkung in 2000 ft

TAF ETAR 251000Z 2510/2616 19006KT 9999 FEW080 QNH3012INS BECMG 2517/2518 24006KT 9999 FEW015 BKN035 QNH3013INS BECMG 2520/2521 25009KT 9000 BR VCSH BKN015 QNH3014INS BECMG 2603/2604 24009KT 8000 -SHRA BR BKN010 OVC040 610604 QNH3017INS BECMG 2609/2610 24012KT 9999 NSW BKN020 QNH3021INS TX15/2514Z TN05/2602Z
Impressum